北九州空港の過去48時間の天気

北九州空港 (Kitakyushu)

現在時刻: 1/19 20:36 JST (1/19 11:36 UTC) 以下の時間は現地時間です。

過去48時間のMETAR気象情報
時間 風向 風速(m/s) 視程 気温(℃) 湿度(%) 気圧(hPa) 天気現象
19 20:00 東南東 3 10km以上 11 71 1019
19 19:00 東南東 2 10km以上 11 62 1019
19 18:00 南東 3 10km以上 11 62 1020
19 17:00 南南西 2 10km以上 12 50 1020
19 16:00 5 10km以上 12 47 1020
19 15:00 不定 1 10km以上 12 47 1021
19 14:00 不定 1 10km以上 12 50 1022
19 13:00 4 10km以上 11 58 1023
19 12:00 南南東 3 10km以上 12 50 1024
19 11:00 南南東 4 10km以上 10 54 1025
19 10:00 南南西 2 10km以上 8 66 1026
19 09:00 不定 1 10km以上 6 87 1026
19 08:00 西 1 10km以上 5 87 1025
19 07:00 北北西 2 10km以上 5 87 1025
19 06:00 3 10km以上 4 87 1024
19 05:00 北北西 2 10km以上 4 81 1024
19 04:00 西南西 1 10km以上 5 81 1024
19 03:00 南南西 1 10km以上 5 81 1025
19 02:00 西 1 10km以上 4 75 1025
19 01:00 西 2 10km以上 7 70 1025
19 00:00 南西 3 10km以上 6 76 1025
18 23:00 南西 3 10km以上 7 66 1026
18 22:00 南南西 2 10km以上 7 61 1025
18 21:00 南西 3 10km以上 8 61 1026
18 20:00 西 2 10km以上 8 57 1026
18 19:00 北西 3 10km以上 9 53 1025
18 18:00 北西 4 10km以上 9 53 1025
18 17:00 北西 5 10km以上 10 54 1025
18 16:00 北西 6 10km以上 10 50 1024
18 15:00 北西 6 10km以上 11 47 1024
18 14:00 北西 7 10km以上 11 43 1024
18 13:00 西北西 7 10km以上 11 43 1024
18 12:00 西北西 7 10km以上 11 47 1026
18 11:00 北西 4 10km以上 10 46 1026
18 10:00 西 4 10km以上 10 50 1026
18 09:00 西 5 10km以上 8 57 1026
18 08:00 西 5 10km以上 7 61 1025
18 07:00 西南西 3 10km以上 7 61 1024
18 06:00 西南西 5 10km以上 7 61 1024
18 05:00 西北西 3 10km以上 8 53 1024
RJFR 191100Z 11005KT 060V140 9999 FEW030 SCT050 BKN070 11/06 Q1019
RJFR 191000Z 11004KT 070V160 9999 FEW040 BKN070 11/04 Q1019
RJFR 190900Z 13006KT 090V170 9999 FEW040 BKN070 11/04 Q1020
RJFR 190800Z 21003KT 160V240 9999 FEW040 BKN070 12/02 Q1020
RJFR 190700Z 17010KT 9999 FEW040 BKN070 12/01 Q1020
RJFR 190600Z VRB02KT 9999 FEW040 12/01 Q1021
RJFR 190500Z VRB02KT 9999 FEW030 12/02 Q1022
RJFR 190400Z VRB08KT 9999 FEW025 11/03 Q1023
RJFR 190300Z 15006KT 9999 FEW025 12/02 Q1024
RJFR 190200Z 15007KT 9999 FEW025 10/01 Q1025
RJFR 190100Z 21004KT 9999 FEW030 08/02 Q1026
RJFR 190000Z VRB02KT CAVOK 06/04 Q1026
RJFR 182300Z 26002KT 9999 FEW030 05/03 Q1025
RJFR 182200Z 33003KT 290V360 9999 FEW030 SCT/// 05/03 Q1025
RJFR 182100Z 01005KT 9999 FEW030 04/02 Q1024
RJFR 182000Z 33003KT 9999 FEW030 SCT/// 04/01 Q1024
RJFR 181900Z 24001KT 9999 FEW030 BKN/// 05/02 Q1024
RJFR 181800Z 20002KT 9999 FEW030 BKN/// 05/02 Q1025
RJFR 181700Z 28001KT 9999 FEW030 SCT/// 04/00 Q1025
RJFR 181600Z 27003KT CAVOK 07/02 Q1025
RJFR 181500Z 22006KT CAVOK 06/02 Q1025
RJFR 181400Z 22005KT 9999 FEW030 07/01 Q1026
RJFR 181300Z 20004KT 9999 FEW030 SCT/// 07/00 Q1025
RJFR 181200Z 22005KT 9999 FEW030 BKN/// 08/01 Q1026
RJFR 181100Z 27004KT 250V060 9999 FEW030 08/00 Q1026
RJFR 181000Z 32006KT 9999 FEW030 09/00 Q1025
RJFR 180900Z 32008KT 9999 FEW030 09/00 Q1025
RJFR 180800Z 31010KT 9999 FEW030 10/01 Q1025
RJFR 180700Z 31012KT 9999 FEW040 10/00 Q1024
RJFR 180600Z 32012KT 9999 FEW040 11/M00 Q1024
RJFR 180500Z 32013KT 9999 FEW040 11/M01 Q1024
RJFR 180400Z 29013KT 9999 FEW030 SCT040 11/M01 Q1024
RJFR 180300Z 30013KT 9999 FEW030 SCT040 11/M00 Q1026
RJFR 180200Z 31008KT 9999 FEW025 10/M01 Q1026
RJFR 180100Z 26007KT 9999 FEW025 10/M00 Q1026
RJFR 180000Z 26009KT 9999 FEW025 08/00 Q1026
RJFR 172300Z 26009KT 9999 FEW025 SCT040 07/00 Q1025
RJFR 172200Z 24006KT 190V270 9999 FEW025 SCT040 07/M00 Q1024
RJFR 172100Z 24009KT 9999 FEW025 SCT035 BKN045 07/M00 Q1024
RJFR 172000Z 30005KT 9999 FEW025 SCT035 BKN045 08/M01 Q1024